sensor_id;sensor_type;location;lat;lon;timestamp;pressure;altitude;pressure_sealevel;temperature;humidity
19590;BME280;12231;42.782;23.388;2023-03-22T00:01:59;95220.38;;;10.68;100.00
19590;BME280;12231;42.782;23.388;2023-03-22T00:04:24;95219.53;;;10.68;100.00
19590;BME280;12231;42.782;23.388;2023-03-22T00:06:50;95226.22;;;10.70;100.00
19590;BME280;12231;42.782;23.388;2023-03-22T00:09:16;95222.44;;;10.76;100.00
19590;BME280;12231;42.782;23.388;2023-03-22T00:11:41;95218.81;;;10.78;100.00
19590;BME280;12231;42.782;23.388;2023-03-22T00:14:07;95223.66;;;10.58;100.00
19590;BME280;12231;42.782;23.388;2023-03-22T00:16:32;95217.88;;;10.67;100.00
19590;BME280;12231;42.782;23.388;2023-03-22T00:18:57;95218.28;;;10.73;100.00
19590;BME280;12231;42.782;23.388;2023-03-22T00:21:23;95219.13;;;10.74;100.00
19590;BME280;12231;42.782;23.388;2023-03-22T00:23:48;95222.22;;;10.79;100.00
19590;BME280;12231;42.782;23.388;2023-03-22T00:26:14;95215.03;;;10.71;100.00
19590;BME280;12231;42.782;23.388;2023-03-22T00:28:40;95216.44;;;10.75;100.00
19590;BME280;12231;42.782;23.388;2023-03-22T00:31:07;95212.03;;;10.65;100.00
19590;BME280;12231;42.782;23.388;2023-03-22T00:33:32;95208.19;;;10.70;100.00
19590;BME280;12231;42.782;23.388;2023-03-22T00:36:00;95208.50;;;10.66;100.00
19590;BME280;12231;42.782;23.388;2023-03-22T00:38:26;95201.72;;;10.65;100.00
19590;BME280;12231;42.782;23.388;2023-03-22T00:41:15;95204.38;;;10.63;100.00
19590;BME280;12231;42.782;23.388;2023-03-22T00:43:42;95205.09;;;10.65;100.00
19590;BME280;12231;42.782;23.388;2023-03-22T00:46:09;95201.59;;;10.66;100.00
19590;BME280;12231;42.782;23.388;2023-03-22T00:48:35;95199.75;;;10.68;100.00
19590;BME280;12231;42.782;23.388;2023-03-22T00:51:00;95202.50;;;10.65;100.00
19590;BME280;12231;42.782;23.388;2023-03-22T00:53:26;95196.25;;;10.69;100.00
19590;BME280;12231;42.782;23.388;2023-03-22T00:55:54;95198.50;;;10.61;100.00
19590;BME280;12231;42.782;23.388;2023-03-22T00:58:19;95198.09;;;10.67;100.00
19590;BME280;12231;42.782;23.388;2023-03-22T01:00:44;95202.22;;;10.70;100.00
19590;BME280;12231;42.782;23.388;2023-03-22T01:03:10;95200.66;;;10.67;100.00
19590;BME280;12231;42.782;23.388;2023-03-22T01:05:38;95195.41;;;10.69;100.00
19590;BME280;12231;42.782;23.388;2023-03-22T01:08:04;95199.56;;;10.71;100.00
19590;BME280;12231;42.782;23.388;2023-03-22T01:10:36;95191.81;;;10.71;100.00
19590;BME280;12231;42.782;23.388;2023-03-22T01:13:03;95191.63;;;10.62;100.00
19590;BME280;12231;42.782;23.388;2023-03-22T01:15:29;95187.06;;;10.65;100.00
19590;BME280;12231;42.782;23.388;2023-03-22T01:17:54;95180.88;;;10.68;100.00
19590;BME280;12231;42.782;23.388;2023-03-22T01:20:20;95181.00;;;10.66;100.00
19590;BME280;12231;42.782;23.388;2023-03-22T01:22:46;95188.81;;;10.65;100.00
19590;BME280;12231;42.782;23.388;2023-03-22T01:25:11;95188.19;;;10.49;100.00
19590;BME280;12231;42.782;23.388;2023-03-22T01:27:37;95184.78;;;10.36;100.00
19590;BME280;12231;42.782;23.388;2023-03-22T01:30:04;95183.31;;;10.44;100.00
19590;BME280;12231;42.782;23.388;2023-03-22T01:32:30;95180.94;;;10.41;100.00
19590;BME280;12231;42.782;23.388;2023-03-22T01:34:56;95177.75;;;10.38;100.00
19590;BME280;12231;42.782;23.388;2023-03-22T01:37:21;95179.88;;;10.31;100.00
19590;BME280;12231;42.782;23.388;2023-03-22T01:39:49;95184.03;;;10.07;100.00
19590;BME280;12231;42.782;23.388;2023-03-22T01:42:15;95176.31;;;10.07;100.00
19590;BME280;12231;42.782;23.388;2023-03-22T01:44:42;95177.34;;;9.78;100.00
19590;BME280;12231;42.782;23.388;2023-03-22T01:47:09;95175.75;;;9.90;100.00
19590;BME280;12231;42.782;23.388;2023-03-22T01:49:36;95173.56;;;9.84;100.00
19590;BME280;12231;42.782;23.388;2023-03-22T01:52:09;95173.66;;;9.82;100.00
19590;BME280;12231;42.782;23.388;2023-03-22T01:57:01;95172.13;;;9.92;100.00
19590;BME280;12231;42.782;23.388;2023-03-22T01:59:27;95172.22;;;9.91;100.00
19590;BME280;12231;42.782;23.388;2023-03-22T02:01:53;95172.75;;;9.96;100.00
19590;BME280;12231;42.782;23.388;2023-03-22T02:04:20;95172.88;;;9.94;100.00
19590;BME280;12231;42.782;23.388;2023-03-22T02:06:51;95175.41;;;9.82;100.00
19590;BME280;12231;42.782;23.388;2023-03-22T02:09:18;95179.72;;;9.81;100.00
19590;BME280;12231;42.782;23.388;2023-03-22T02:11:54;95174.06;;;11.04;100.00
19590;BME280;12231;42.782;23.388;2023-03-22T02:20:03;95179.09;;;10.04;100.00
19590;BME280;12231;42.782;23.388;2023-03-22T02:36:30;95187.84;;;10.02;100.00
19590;BME280;12231;42.782;23.388;2023-03-22T02:42:08;95197.28;;;9.74;100.00
19590;BME280;12231;42.782;23.388;2023-03-22T02:44:45;95195.44;;;9.77;100.00
19590;BME280;12231;42.782;23.388;2023-03-22T02:48:02;95203.56;;;9.70;100.00
19590;BME280;12231;42.782;23.388;2023-03-22T02:52:46;95207.13;;;9.68;100.00
19590;BME280;12231;42.782;23.388;2023-03-22T02:55:39;95209.50;;;9.71;100.00
19590;BME280;12231;42.782;23.388;2023-03-22T02:58:23;95210.66;;;9.67;100.00
19590;BME280;12231;42.782;23.388;2023-03-22T03:00:58;95204.81;;;9.51;100.00
19590;BME280;12231;42.782;23.388;2023-03-22T03:03:27;95211.19;;;9.58;100.00
19590;BME280;12231;42.782;23.388;2023-03-22T03:05:57;95212.69;;;9.62;100.00
19590;BME280;12231;42.782;23.388;2023-03-22T03:08:25;95214.84;;;9.68;100.00
19590;BME280;12231;42.782;23.388;2023-03-22T03:10:52;95211.47;;;9.67;100.00
19590;BME280;12231;42.782;23.388;2023-03-22T03:13:19;95211.75;;;9.63;100.00
19590;BME280;12231;42.782;23.388;2023-03-22T03:15:49;95206.34;;;9.67;100.00
19590;BME280;12231;42.782;23.388;2023-03-22T03:23:54;95209.56;;;9.57;100.00
19590;BME280;12231;42.782;23.388;2023-03-22T03:29:30;95208.81;;;9.69;100.00
19590;BME280;12231;42.782;23.388;2023-03-22T03:32:15;95205.22;;;9.71;100.00
19590;BME280;12231;42.782;23.388;2023-03-22T03:34:48;95206.72;;;9.47;100.00
19590;BME280;12231;42.782;23.388;2023-03-22T03:37:44;95211.38;;;9.55;100.00
19590;BME280;12231;42.782;23.388;2023-03-22T03:40:16;95210.84;;;9.50;100.00
19590;BME280;12231;42.782;23.388;2023-03-22T03:42:46;95217.91;;;9.46;100.00
19590;BME280;12231;42.782;23.388;2023-03-22T03:45:15;95218.13;;;9.57;100.00
19590;BME280;12231;42.782;23.388;2023-03-22T03:47:43;95221.38;;;9.59;100.00
19590;BME280;12231;42.782;23.388;2023-03-22T03:50:10;95216.19;;;9.61;100.00
19590;BME280;12231;42.782;23.388;2023-03-22T03:52:37;95224.63;;;9.49;100.00
19590;BME280;12231;42.782;23.388;2023-03-22T03:55:02;95220.03;;;9.54;100.00
19590;BME280;12231;42.782;23.388;2023-03-22T03:57:28;95224.53;;;9.50;100.00
19590;BME280;12231;42.782;23.388;2023-03-22T03:59:53;95227.75;;;9.54;100.00
19590;BME280;12231;42.782;23.388;2023-03-22T04:02:18;95222.25;;;9.46;100.00
19590;BME280;12231;42.782;23.388;2023-03-22T04:04:44;95228.31;;;9.59;100.00
19590;BME280;12231;42.782;23.388;2023-03-22T04:07:10;95226.94;;;9.25;100.00
19590;BME280;12231;42.782;23.388;2023-03-22T04:09:37;95231.06;;;9.42;100.00
19590;BME280;12231;42.782;23.388;2023-03-22T04:12:03;95235.75;;;9.49;100.00
19590;BME280;12231;42.782;23.388;2023-03-22T04:14:28;95237.03;;;9.56;100.00
19590;BME280;12231;42.782;23.388;2023-03-22T04:16:54;95238.72;;;9.29;100.00
19590;BME280;12231;42.782;23.388;2023-03-22T04:19:21;95240.88;;;9.63;100.00
19590;BME280;12231;42.782;23.388;2023-03-22T04:21:46;95236.22;;;9.56;100.00
19590;BME280;12231;42.782;23.388;2023-03-22T04:24:12;95235.00;;;9.61;100.00
19590;BME280;12231;42.782;23.388;2023-03-22T04:26:38;95240.63;;;9.54;100.00
19590;BME280;12231;42.782;23.388;2023-03-22T04:29:04;95240.88;;;9.63;100.00
19590;BME280;12231;42.782;23.388;2023-03-22T04:31:31;95239.13;;;9.50;100.00
19590;BME280;12231;42.782;23.388;2023-03-22T04:33:57;95246.31;;;9.59;100.00
19590;BME280;12231;42.782;23.388;2023-03-22T04:36:25;95240.44;;;9.57;100.00
19590;BME280;12231;42.782;23.388;2023-03-22T04:38:55;95233.09;;;9.51;100.00
19590;BME280;12231;42.782;23.388;2023-03-22T04:41:21;95239.25;;;9.62;100.00
19590;BME280;12231;42.782;23.388;2023-03-22T04:43:46;95240.13;;;9.61;100.00
19590;BME280;12231;42.782;23.388;2023-03-22T04:46:15;95243.09;;;9.55;100.00
19590;BME280;12231;42.782;23.388;2023-03-22T04:48:41;95240.88;;;9.63;100.00
19590;BME280;12231;42.782;23.388;2023-03-22T04:51:09;95243.81;;;9.71;100.00
19590;BME280;12231;42.782;23.388;2023-03-22T04:53:35;95248.16;;;9.57;100.00
19590;BME280;12231;42.782;23.388;2023-03-22T04:56:05;95247.94;;;9.74;100.00
19590;BME280;12231;42.782;23.388;2023-03-22T04:58:33;95251.13;;;9.77;100.00
19590;BME280;12231;42.782;23.388;2023-03-22T05:00:58;95248.19;;;9.84;100.00
19590;BME280;12231;42.782;23.388;2023-03-22T05:03:24;95258.94;;;9.90;100.00
19590;BME280;12231;42.782;23.388;2023-03-22T05:05:58;95261.50;;;9.90;100.00
19590;BME280;12231;42.782;23.388;2023-03-22T05:08:25;95254.50;;;9.92;100.00
19590;BME280;12231;42.782;23.388;2023-03-22T05:10:52;95262.41;;;9.89;100.00
19590;BME280;12231;42.782;23.388;2023-03-22T05:13:19;95262.25;;;9.78;100.00
19590;BME280;12231;42.782;23.388;2023-03-22T05:15:44;95261.41;;;9.92;100.00
19590;BME280;12231;42.782;23.388;2023-03-22T05:18:11;95267.66;;;10.02;100.00
19590;BME280;12231;42.782;23.388;2023-03-22T05:20:39;95273.56;;;9.90;100.00
19590;BME280;12231;42.782;23.388;2023-03-22T05:23:05;95273.28;;;10.08;100.00
19590;BME280;12231;42.782;23.388;2023-03-22T05:25:30;95282.63;;;10.09;100.00
19590;BME280;12231;42.782;23.388;2023-03-22T05:27:56;95279.25;;;9.95;100.00
19590;BME280;12231;42.782;23.388;2023-03-22T05:30:29;95283.56;;;10.08;100.00
19590;BME280;12231;42.782;23.388;2023-03-22T05:33:00;95288.84;;;10.05;100.00
19590;BME280;12231;42.782;23.388;2023-03-22T05:35:30;95292.44;;;10.17;100.00
19590;BME280;12231;42.782;23.388;2023-03-22T05:37:56;95289.41;;;10.24;100.00
19590;BME280;12231;42.782;23.388;2023-03-22T05:40:23;95287.28;;;10.31;100.00
19590;BME280;12231;42.782;23.388;2023-03-22T05:42:48;95288.94;;;10.44;100.00
19590;BME280;12231;42.782;23.388;2023-03-22T05:45:14;95284.97;;;10.53;100.00
19590;BME280;12231;42.782;23.388;2023-03-22T05:47:41;95292.72;;;10.65;100.00
19590;BME280;12231;42.782;23.388;2023-03-22T05:50:09;95285.31;;;10.73;100.00
19590;BME280;12231;42.782;23.388;2023-03-22T05:52:35;95289.88;;;10.70;100.00
19590;BME280;12231;42.782;23.388;2023-03-22T05:55:01;95291.59;;;10.69;100.00
19590;BME280;12231;42.782;23.388;2023-03-22T05:57:26;95298.34;;;10.84;100.00
19590;BME280;12231;42.782;23.388;2023-03-22T05:59:55;95300.81;;;10.86;100.00
19590;BME280;12231;42.782;23.388;2023-03-22T06:02:20;95302.25;;;10.77;100.00
19590;BME280;12231;42.782;23.388;2023-03-22T06:04:46;95306.63;;;10.89;100.00
19590;BME280;12231;42.782;23.388;2023-03-22T06:07:12;95298.78;;;11.03;100.00
19590;BME280;12231;42.782;23.388;2023-03-22T06:09:38;95304.88;;;11.15;100.00
19590;BME280;12231;42.782;23.388;2023-03-22T06:12:03;95310.16;;;11.26;100.00
19590;BME280;12231;42.782;23.388;2023-03-22T06:14:29;95309.34;;;11.38;100.00
19590;BME280;12231;42.782;23.388;2023-03-22T06:16:55;95314.78;;;11.34;100.00
19590;BME280;12231;42.782;23.388;2023-03-22T06:19:20;95314.81;;;11.46;100.00
19590;BME280;12231;42.782;23.388;2023-03-22T06:21:46;95316.78;;;11.30;100.00
19590;BME280;12231;42.782;23.388;2023-03-22T06:24:11;95312.72;;;11.26;100.00
19590;BME280;12231;42.782;23.388;2023-03-22T06:26:37;95320.25;;;11.42;100.00
19590;BME280;12231;42.782;23.388;2023-03-22T06:29:02;95320.16;;;11.31;100.00
19590;BME280;12231;42.782;23.388;2023-03-22T06:31:28;95323.97;;;11.50;100.00
19590;BME280;12231;42.782;23.388;2023-03-22T06:33:54;95321.69;;;11.58;100.00
19590;BME280;12231;42.782;23.388;2023-03-22T06:36:19;95327.19;;;11.54;100.00
19590;BME280;12231;42.782;23.388;2023-03-22T06:38:45;95324.00;;;11.75;100.00
19590;BME280;12231;42.782;23.388;2023-03-22T06:41:10;95331.66;;;11.64;100.00
19590;BME280;12231;42.782;23.388;2023-03-22T06:43:36;95328.34;;;11.75;100.00
19590;BME280;12231;42.782;23.388;2023-03-22T06:46:01;95335.63;;;12.06;100.00
19590;BME280;12231;42.782;23.388;2023-03-22T06:48:27;95343.22;;;12.32;100.00
19590;BME280;12231;42.782;23.388;2023-03-22T06:50:52;95337.88;;;12.47;100.00
19590;BME280;12231;42.782;23.388;2023-03-22T06:53:18;95348.56;;;12.66;100.00
19590;BME280;12231;42.782;23.388;2023-03-22T06:55:43;95350.53;;;12.62;100.00
19590;BME280;12231;42.782;23.388;2023-03-22T06:58:09;95349.16;;;12.69;100.00
19590;BME280;12231;42.782;23.388;2023-03-22T07:00:34;95342.50;;;12.78;100.00
19590;BME280;12231;42.782;23.388;2023-03-22T07:03:00;95341.84;;;12.87;100.00
19590;BME280;12231;42.782;23.388;2023-03-22T07:05:25;95350.34;;;13.00;100.00
19590;BME280;12231;42.782;23.388;2023-03-22T07:07:51;95349.59;;;12.87;100.00
19590;BME280;12231;42.782;23.388;2023-03-22T07:10:16;95360.78;;;12.87;100.00
19590;BME280;12231;42.782;23.388;2023-03-22T07:12:42;95360.81;;;12.51;100.00
19590;BME280;12231;42.782;23.388;2023-03-22T07:15:07;95370.81;;;12.68;100.00
19590;BME280;12231;42.782;23.388;2023-03-22T07:17:33;95367.00;;;12.61;100.00
19590;BME280;12231;42.782;23.388;2023-03-22T07:19:58;95362.88;;;12.59;100.00
19590;BME280;12231;42.782;23.388;2023-03-22T07:22:24;95367.81;;;12.62;100.00
19590;BME280;12231;42.782;23.388;2023-03-22T07:24:51;95360.81;;;12.51;100.00
19590;BME280;12231;42.782;23.388;2023-03-22T07:27:17;95363.63;;;12.48;100.00
19590;BME280;12231;42.782;23.388;2023-03-22T07:29:43;95370.03;;;12.55;100.00
19590;BME280;12231;42.782;23.388;2023-03-22T07:32:09;95370.25;;;12.52;100.00
19590;BME280;12231;42.782;23.388;2023-03-22T07:34:35;95379.19;;;12.59;100.00
19590;BME280;12231;42.782;23.388;2023-03-22T07:37:00;95375.69;;;12.60;100.00
19590;BME280;12231;42.782;23.388;2023-03-22T07:39:28;95375.88;;;12.57;100.00
19590;BME280;12231;42.782;23.388;2023-03-22T07:41:54;95377.56;;;12.58;100.00
19590;BME280;12231;42.782;23.388;2023-03-22T07:44:20;95383.34;;;12.62;100.00
19590;BME280;12231;42.782;23.388;2023-03-22T07:46:46;95382.50;;;12.61;100.00
19590;BME280;12231;42.782;23.388;2023-03-22T07:49:11;95388.13;;;12.55;100.00
19590;BME280;12231;42.782;23.388;2023-03-22T07:51:37;95388.41;;;12.51;100.00
19590;BME280;12231;42.782;23.388;2023-03-22T07:54:03;95383.91;;;12.41;100.00
19590;BME280;12231;42.782;23.388;2023-03-22T07:56:28;95391.13;;;12.49;100.00
19590;BME280;12231;42.782;23.388;2023-03-22T07:58:54;95390.31;;;12.36;100.00
19590;BME280;12231;42.782;23.388;2023-03-22T08:01:19;95390.25;;;12.37;100.00
19590;BME280;12231;42.782;23.388;2023-03-22T08:03:45;95389.72;;;12.32;100.00
19590;BME280;12231;42.782;23.388;2023-03-22T08:06:11;95393.34;;;12.30;100.00
19590;BME280;12231;42.782;23.388;2023-03-22T08:08:37;95397.88;;;12.39;100.00
19590;BME280;12231;42.782;23.388;2023-03-22T08:11:03;95399.31;;;12.43;100.00
19590;BME280;12231;42.782;23.388;2023-03-22T08:13:29;95399.41;;;12.41;100.00
19590;BME280;12231;42.782;23.388;2023-03-22T08:15:55;95396.00;;;12.54;100.00
19590;BME280;12231;42.782;23.388;2023-03-22T08:18:20;95395.41;;;12.37;100.00
19590;BME280;12231;42.782;23.388;2023-03-22T08:20:54;95401.28;;;12.39;100.00
19590;BME280;12231;42.782;23.388;2023-03-22T08:23:21;95399.78;;;12.61;100.00
19590;BME280;12231;42.782;23.388;2023-03-22T08:25:47;95404.03;;;12.85;100.00
19590;BME280;12231;42.782;23.388;2023-03-22T08:28:12;95408.47;;;12.83;100.00
19590;BME280;12231;42.782;23.388;2023-03-22T08:30:40;95408.75;;;12.91;100.00
19590;BME280;12231;42.782;23.388;2023-03-22T08:33:06;95407.19;;;13.01;100.00
19590;BME280;12231;42.782;23.388;2023-03-22T08:35:31;95413.72;;;12.71;100.00
19590;BME280;12231;42.782;23.388;2023-03-22T08:37:56;95416.78;;;12.52;100.00
19590;BME280;12231;42.782;23.388;2023-03-22T08:40:22;95410.31;;;12.34;100.00
19590;BME280;12231;42.782;23.388;2023-03-22T08:42:49;95418.56;;;12.39;100.00
19590;BME280;12231;42.782;23.388;2023-03-22T08:45:15;95416.84;;;12.63;100.00
19590;BME280;12231;42.782;23.388;2023-03-22T08:47:40;95420.44;;;12.61;100.00
19590;BME280;12231;42.782;23.388;2023-03-22T08:50:07;95420.38;;;12.50;100.00
19590;BME280;12231;42.782;23.388;2023-03-22T08:52:32;95420.44;;;12.73;100.00
19590;BME280;12231;42.782;23.388;2023-03-22T08:54:58;95416.97;;;12.85;100.00
19590;BME280;12231;42.782;23.388;2023-03-22T08:57:23;95418.38;;;13.02;100.00
19590;BME280;12231;42.782;23.388;2023-03-22T08:59:52;95425.06;;;13.04;100.00
19590;BME280;12231;42.782;23.388;2023-03-22T09:02:18;95414.28;;;13.91;100.00
19590;BME280;12231;42.782;23.388;2023-03-22T09:04:44;95411.88;;;14.55;100.00
19590;BME280;12231;42.782;23.388;2023-03-22T09:07:09;95425.75;;;15.19;100.00
19590;BME280;12231;42.782;23.388;2023-03-22T09:09:35;95435.09;;;15.53;99.79
19590;BME280;12231;42.782;23.388;2023-03-22T09:12:00;95447.41;;;15.51;96.26
19590;BME280;12231;42.782;23.388;2023-03-22T09:14:26;95446.44;;;15.52;95.66
19590;BME280;12231;42.782;23.388;2023-03-22T09:16:51;95443.53;;;14.92;98.74
19590;BME280;12231;42.782;23.388;2023-03-22T09:19:17;95442.59;;;14.16;100.00
19590;BME280;12231;42.782;23.388;2023-03-22T09:21:42;95445.34;;;14.25;100.00
19590;BME280;12231;42.782;23.388;2023-03-22T09:24:08;95444.97;;;14.08;100.00
19590;BME280;12231;42.782;23.388;2023-03-22T09:26:33;95443.34;;;13.72;100.00
19590;BME280;12231;42.782;23.388;2023-03-22T09:28:58;95443.34;;;13.72;100.00
19590;BME280;12231;42.782;23.388;2023-03-22T09:31:24;95439.72;;;13.86;100.00
19590;BME280;12231;42.782;23.388;2023-03-22T09:33:49;95435.13;;;13.43;100.00
19590;BME280;12231;42.782;23.388;2023-03-22T09:36:15;95441.00;;;13.69;100.00
19590;BME280;12231;42.782;23.388;2023-03-22T09:38:41;95445.44;;;13.32;100.00
19590;BME280;12231;42.782;23.388;2023-03-22T09:41:20;95437.22;;;13.38;100.00
19590;BME280;12231;42.782;23.388;2023-03-22T09:43:59;95436.38;;;13.61;100.00
19590;BME280;12231;42.782;23.388;2023-03-22T09:46:36;95445.13;;;13.13;100.00
19590;BME280;12231;42.782;23.388;2023-03-22T09:49:12;95437.88;;;12.46;100.00
19590;BME280;12231;42.782;23.388;2023-03-22T09:51:43;95437.09;;;12.69;100.00
19590;BME280;12231;42.782;23.388;2023-03-22T09:54:27;95436.69;;;11.76;100.00
19590;BME280;12231;42.782;23.388;2023-03-22T10:03:03;95426.03;;;12.67;100.00
19590;BME280;12231;42.782;23.388;2023-03-22T10:10:21;95449.22;;;13.28;100.00
19590;BME280;12231;42.782;23.388;2023-03-22T10:12:56;95437.84;;;13.88;100.00
19590;BME280;12231;42.782;23.388;2023-03-22T10:15:32;95447.06;;;14.03;100.00
19590;BME280;12231;42.782;23.388;2023-03-22T10:18:02;95448.81;;;13.91;100.00
19590;BME280;12231;42.782;23.388;2023-03-22T10:22:55;95446.75;;;13.72;100.00
19590;BME280;12231;42.782;23.388;2023-03-22T10:25:30;95440.78;;;13.83;100.00
19590;BME280;12231;42.782;23.388;2023-03-22T10:27:57;95456.94;;;13.52;100.00
19590;BME280;12231;42.782;23.388;2023-03-22T10:30:25;95450.63;;;14.79;100.00
19590;BME280;12231;42.782;23.388;2023-03-22T10:32:58;95453.31;;;13.54;100.00
19590;BME280;12231;42.782;23.388;2023-03-22T10:35:24;95445.59;;;13.76;100.00
19590;BME280;12231;42.782;23.388;2023-03-22T10:37:50;95446.38;;;14.23;100.00
19590;BME280;12231;42.782;23.388;2023-03-22T10:40:29;95448.53;;;14.51;100.00
19590;BME280;12231;42.782;23.388;2023-03-22T10:43:01;95450.66;;;14.68;100.00
19590;BME280;12231;42.782;23.388;2023-03-22T10:45:30;95449.00;;;14.56;99.89
19590;BME280;12231;42.782;23.388;2023-03-22T10:48:01;95438.28;;;14.71;99.43
19590;BME280;12231;42.782;23.388;2023-03-22T10:50:42;95441.31;;;14.65;99.65
19590;BME280;12231;42.782;23.388;2023-03-22T10:55:41;95442.13;;;13.54;100.00
19590;BME280;12231;42.782;23.388;2023-03-22T10:58:15;95447.69;;;13.37;100.00
19590;BME280;12231;42.782;23.388;2023-03-22T11:00:45;95439.19;;;13.58;100.00
19590;BME280;12231;42.782;23.388;2023-03-22T11:03:37;95445.09;;;13.60;100.00
19590;BME280;12231;42.782;23.388;2023-03-22T11:06:18;95449.50;;;13.82;100.00
19590;BME280;12231;42.782;23.388;2023-03-22T11:09:10;95440.19;;;13.79;100.00
19590;BME280;12231;42.782;23.388;2023-03-22T11:11:48;95447.22;;;13.66;100.00
19590;BME280;12231;42.782;23.388;2023-03-22T11:14:18;95445.16;;;13.48;100.00
19590;BME280;12231;42.782;23.388;2023-03-22T11:16:57;95438.03;;;13.62;100.00
19590;BME280;12231;42.782;23.388;2023-03-22T11:19:34;95435.84;;;13.45;100.00
19590;BME280;12231;42.782;23.388;2023-03-22T11:22:02;95439.50;;;12.83;100.00
19590;BME280;12231;42.782;23.388;2023-03-22T11:24:30;95436.91;;;12.60;100.00
19590;BME280;12231;42.782;23.388;2023-03-22T11:27:24;95429.50;;;12.79;100.00
19590;BME280;12231;42.782;23.388;2023-03-22T11:29:57;95433.25;;;12.98;100.00
19590;BME280;12231;42.782;23.388;2023-03-22T11:32:30;95430.56;;;13.00;100.00
19590;BME280;12231;42.782;23.388;2023-03-22T11:35:04;95427.03;;;13.13;100.00
19590;BME280;12231;42.782;23.388;2023-03-22T11:37:43;95419.84;;;12.57;100.00
19590;BME280;12231;42.782;23.388;2023-03-22T11:40:15;95424.38;;;12.66;100.00
19590;BME280;12231;42.782;23.388;2023-03-22T11:42:41;95427.16;;;12.99;100.00
19590;BME280;12231;42.782;23.388;2023-03-22T11:45:13;95423.47;;;12.91;100.00
19590;BME280;12231;42.782;23.388;2023-03-22T11:47:39;95426.50;;;12.85;100.00
19590;BME280;12231;42.782;23.388;2023-03-22T11:50:07;95417.81;;;13.09;100.00
19590;BME280;12231;42.782;23.388;2023-03-22T11:52:34;95414.63;;;13.29;100.00
19590;BME280;12231;42.782;23.388;2023-03-22T11:55:00;95410.44;;;12.92;100.00
19590;BME280;12231;42.782;23.388;2023-03-22T11:57:29;95413.19;;;13.60;100.00
19590;BME280;12231;42.782;23.388;2023-03-22T12:00:05;95409.34;;;13.88;100.00
19590;BME280;12231;42.782;23.388;2023-03-22T12:02:49;95409.88;;;14.15;100.00
19590;BME280;12231;42.782;23.388;2023-03-22T12:05:21;95416.13;;;14.56;100.00
19590;BME280;12231;42.782;23.388;2023-03-22T12:07:54;95423.31;;;14.31;100.00
19590;BME280;12231;42.782;23.388;2023-03-22T12:10:32;95423.28;;;13.52;100.00
19590;BME280;12231;42.782;23.388;2023-03-22T12:15:34;95419.19;;;13.60;100.00
19590;BME280;12231;42.782;23.388;2023-03-22T12:18:16;95420.44;;;14.12;100.00
19590;BME280;12231;42.782;23.388;2023-03-22T12:20:55;95420.66;;;13.87;100.00
19590;BME280;12231;42.782;23.388;2023-03-22T12:23:31;95415.66;;;13.72;100.00
19590;BME280;12231;42.782;23.388;2023-03-22T12:26:19;95415.09;;;13.69;100.00
19590;BME280;12231;42.782;23.388;2023-03-22T12:29:14;95424.75;;;13.32;100.00
19590;BME280;12231;42.782;23.388;2023-03-22T12:31:55;95422.44;;;13.51;100.00
19590;BME280;12231;42.782;23.388;2023-03-22T12:34:36;95425.19;;;13.26;100.00
19590;BME280;12231;42.782;23.388;2023-03-22T12:37:06;95421.81;;;13.02;100.00
19590;BME280;12231;42.782;23.388;2023-03-22T12:39:42;95425.56;;;13.09;100.00
19590;BME280;12231;42.782;23.388;2023-03-22T12:42:23;95426.19;;;13.13;100.00
19590;BME280;12231;42.782;23.388;2023-03-22T12:44:56;95417.16;;;13.18;100.00
19590;BME280;12231;42.782;23.388;2023-03-22T12:50:10;95419.09;;;12.68;100.00
19590;BME280;12231;42.782;23.388;2023-03-22T12:52:45;95412.88;;;12.34;100.00
19590;BME280;12231;42.782;23.388;2023-03-22T12:55:25;95414.66;;;12.57;100.00
19590;BME280;12231;42.782;23.388;2023-03-22T12:57:52;95413.97;;;12.55;100.00
19590;BME280;12231;42.782;23.388;2023-03-22T13:00:21;95418.28;;;12.31;100.00
19590;BME280;12231;42.782;23.388;2023-03-22T13:03:02;95414.38;;;12.49;100.00
19590;BME280;12231;42.782;23.388;2023-03-22T13:05:33;95412.19;;;12.19;100.00
19590;BME280;12231;42.782;23.388;2023-03-22T13:07:59;95413.72;;;12.22;100.00
19590;BME280;12231;42.782;23.388;2023-03-22T13:16:13;95418.34;;;12.42;100.00
19590;BME280;12231;42.782;23.388;2023-03-22T13:21:21;95408.91;;;11.80;100.00
19590;BME280;12231;42.782;23.388;2023-03-22T13:26:50;95413.75;;;11.97;100.00
19590;BME280;12231;42.782;23.388;2023-03-22T13:29:24;95399.38;;;12.18;100.00
19590;BME280;12231;42.782;23.388;2023-03-22T13:34:20;95397.69;;;12.29;100.00
19590;BME280;12231;42.782;23.388;2023-03-22T13:36:55;95402.56;;;12.58;100.00
19590;BME280;12231;42.782;23.388;2023-03-22T13:39:22;95398.81;;;12.38;100.00
19590;BME280;12231;42.782;23.388;2023-03-22T13:42:05;95394.25;;;12.41;100.00
19590;BME280;12231;42.782;23.388;2023-03-22T13:44:37;95394.56;;;12.73;100.00
19590;BME280;12231;42.782;23.388;2023-03-22T13:47:07;95393.56;;;12.63;100.00
19590;BME280;12231;42.782;23.388;2023-03-22T13:49:47;95401.28;;;12.99;100.00
19590;BME280;12231;42.782;23.388;2023-03-22T13:52:25;95389.69;;;13.28;100.00
19590;BME280;12231;42.782;23.388;2023-03-22T13:54:52;95386.59;;;13.23;100.00
19590;BME280;12231;42.782;23.388;2023-03-22T13:57:39;95396.66;;;12.92;100.00
19590;BME280;12231;42.782;23.388;2023-03-22T14:02:56;95397.94;;;12.86;100.00
19590;BME280;12231;42.782;23.388;2023-03-22T14:05:24;95402.91;;;12.77;100.00
19590;BME280;12231;42.782;23.388;2023-03-22T14:07:55;95389.81;;;13.03;100.00